sensor_id;sensor_type;location;lat;lon;timestamp;pressure;altitude;pressure_sealevel;temperature;humidity
75629;BME280;64213;46.452;16.994;2022-11-02T00:02:06;100641.66;;;9.28;98.88
75629;BME280;64213;46.452;16.994;2022-11-02T00:05:11;100651.66;;;9.21;99.06
75629;BME280;64213;46.452;16.994;2022-11-02T00:08:13;100658.16;;;9.14;99.03
75629;BME280;64213;46.452;16.994;2022-11-02T00:11:16;100657.53;;;9.09;99.10
75629;BME280;64213;46.452;16.994;2022-11-02T00:14:18;100653.19;;;9.08;98.97
75629;BME280;64213;46.452;16.994;2022-11-02T00:17:20;100650.63;;;9.06;99.04
75629;BME280;64213;46.452;16.994;2022-11-02T00:20:22;100654.16;;;9.05;99.06
75629;BME280;64213;46.452;16.994;2022-11-02T00:23:24;100652.47;;;9.04;99.19
75629;BME280;64213;46.452;16.994;2022-11-02T00:26:27;100649.69;;;9.07;99.23
75629;BME280;64213;46.452;16.994;2022-11-02T00:29:29;100645.19;;;9.10;99.38
75629;BME280;64213;46.452;16.994;2022-11-02T00:32:34;100634.84;;;9.05;99.34
75629;BME280;64213;46.452;16.994;2022-11-02T00:35:37;100647.06;;;9.07;99.27
75629;BME280;64213;46.452;16.994;2022-11-02T00:38:39;100647.84;;;9.10;99.47
75629;BME280;64213;46.452;16.994;2022-11-02T00:41:41;100639.84;;;9.11;99.47
75629;BME280;64213;46.452;16.994;2022-11-02T00:44:43;100644.19;;;9.12;99.43
75629;BME280;64213;46.452;16.994;2022-11-02T00:47:45;100645.97;;;9.12;99.46
75629;BME280;64213;46.452;16.994;2022-11-02T00:50:47;100639.78;;;9.13;99.41
75629;BME280;64213;46.452;16.994;2022-11-02T00:53:50;100639.63;;;9.16;99.42
75629;BME280;64213;46.452;16.994;2022-11-02T00:56:52;100637.75;;;9.18;99.29
75629;BME280;64213;46.452;16.994;2022-11-02T00:59:54;100641.34;;;9.17;99.20
75629;BME280;64213;46.452;16.994;2022-11-02T01:02:59;100644.13;;;9.14;99.08
75629;BME280;64213;46.452;16.994;2022-11-02T01:06:14;100648.69;;;9.10;99.06
75629;BME280;64213;46.452;16.994;2022-11-02T01:09:16;100655.03;;;9.06;99.12
75629;BME280;64213;46.452;16.994;2022-11-02T01:12:18;100660.25;;;9.07;99.26
75629;BME280;64213;46.452;16.994;2022-11-02T01:15:20;100675.78;;;9.14;99.14
75629;BME280;64213;46.452;16.994;2022-11-02T01:18:22;100688.00;;;9.16;99.17
75629;BME280;64213;46.452;16.994;2022-11-02T01:21:25;100685.50;;;9.13;99.16
75629;BME280;64213;46.452;16.994;2022-11-02T01:24:27;100679.94;;;9.19;99.00
75629;BME280;64213;46.452;16.994;2022-11-02T01:27:30;100675.22;;;9.26;98.96
75629;BME280;64213;46.452;16.994;2022-11-02T01:30:32;100681.88;;;9.33;98.83
75629;BME280;64213;46.452;16.994;2022-11-02T01:33:35;100676.59;;;9.33;98.76
75629;BME280;64213;46.452;16.994;2022-11-02T01:36:37;100679.16;;;9.35;98.59
75629;BME280;64213;46.452;16.994;2022-11-02T01:39:39;100679.91;;;9.38;98.43
75629;BME280;64213;46.452;16.994;2022-11-02T01:42:41;100685.22;;;9.37;98.43
75629;BME280;64213;46.452;16.994;2022-11-02T01:45:43;100684.28;;;9.38;98.50
75629;BME280;64213;46.452;16.994;2022-11-02T01:48:49;100683.03;;;9.27;98.68
75629;BME280;64213;46.452;16.994;2022-11-02T01:52:09;100671.56;;;9.28;98.53
75629;BME280;64213;46.452;16.994;2022-11-02T01:55:17;100667.13;;;9.29;98.46
75629;BME280;64213;46.452;16.994;2022-11-02T01:58:20;100664.66;;;9.26;98.37
75629;BME280;64213;46.452;16.994;2022-11-02T02:01:23;100658.66;;;9.22;98.32
75629;BME280;64213;46.452;16.994;2022-11-02T02:04:27;100661.22;;;9.24;98.44
75629;BME280;64213;46.452;16.994;2022-11-02T02:07:30;100660.22;;;9.26;98.61
75629;BME280;64213;46.452;16.994;2022-11-02T02:10:34;100646.94;;;9.28;98.71
75629;BME280;64213;46.452;16.994;2022-11-02T02:13:36;100642.44;;;9.30;98.81
75629;BME280;64213;46.452;16.994;2022-11-02T02:23:36;100629.00;;;9.35;98.89
75629;BME280;64213;46.452;16.994;2022-11-02T02:26:48;100623.66;;;9.36;98.91
75629;BME280;64213;46.452;16.994;2022-11-02T02:30:01;100621.72;;;9.40;98.84
75629;BME280;64213;46.452;16.994;2022-11-02T02:33:10;100612.09;;;9.39;98.87
75629;BME280;64213;46.452;16.994;2022-11-02T02:36:44;100613.53;;;9.44;98.90
75629;BME280;64213;46.452;16.994;2022-11-02T02:39:56;100607.34;;;9.45;99.02
75629;BME280;64213;46.452;16.994;2022-11-02T02:43:12;100622.09;;;9.49;99.00
75629;BME280;64213;46.452;16.994;2022-11-02T02:46:36;100627.09;;;9.55;98.98
75629;BME280;64213;46.452;16.994;2022-11-02T02:49:54;100632.22;;;9.59;99.04
75629;BME280;64213;46.452;16.994;2022-11-02T02:52:58;100631.13;;;9.63;98.89
75629;BME280;64213;46.452;16.994;2022-11-02T02:56:03;100637.97;;;9.67;98.85
75629;BME280;64213;46.452;16.994;2022-11-02T02:59:13;100638.72;;;9.69;98.81
75629;BME280;64213;46.452;16.994;2022-11-02T03:02:23;100643.81;;;9.73;98.70
75629;BME280;64213;46.452;16.994;2022-11-02T03:05:36;100638.38;;;9.76;98.58
75629;BME280;64213;46.452;16.994;2022-11-02T03:08:41;100648.78;;;9.80;98.41
75629;BME280;64213;46.452;16.994;2022-11-02T03:15:40;100664.69;;;9.78;98.21
75629;BME280;64213;46.452;16.994;2022-11-02T03:22:00;100671.22;;;9.71;98.42
75629;BME280;64213;46.452;16.994;2022-11-02T03:34:57;100667.00;;;9.49;99.09
75629;BME280;64213;46.452;16.994;2022-11-02T03:38:03;100667.31;;;9.43;99.09
75629;BME280;64213;46.452;16.994;2022-11-02T03:41:08;100664.59;;;9.45;99.11
75629;BME280;64213;46.452;16.994;2022-11-02T03:44:15;100673.44;;;9.44;99.18
75629;BME280;64213;46.452;16.994;2022-11-02T03:47:21;100678.16;;;9.37;99.12
75629;BME280;64213;46.452;16.994;2022-11-02T03:50:25;100676.38;;;9.38;99.16
75629;BME280;64213;46.452;16.994;2022-11-02T03:53:36;100685.03;;;9.41;99.42
75629;BME280;64213;46.452;16.994;2022-11-02T03:56:50;100681.28;;;9.45;99.37
75629;BME280;64213;46.452;16.994;2022-11-02T04:00:14;100677.56;;;9.49;99.42
75629;BME280;64213;46.452;16.994;2022-11-02T04:03:18;100677.72;;;9.46;99.34
75629;BME280;64213;46.452;16.994;2022-11-02T04:06:21;100688.81;;;9.53;99.21
75629;BME280;64213;46.452;16.994;2022-11-02T04:09:24;100693.25;;;9.52;99.12
75629;BME280;64213;46.452;16.994;2022-11-02T04:12:26;100668.69;;;9.50;99.10
75629;BME280;64213;46.452;16.994;2022-11-02T04:15:54;100658.38;;;9.46;99.32
75629;BME280;64213;46.452;16.994;2022-11-02T04:18:56;100641.84;;;9.42;99.40
75629;BME280;64213;46.452;16.994;2022-11-02T04:22:18;100644.31;;;9.45;99.62
75629;BME280;64213;46.452;16.994;2022-11-02T04:25:39;100642.38;;;9.49;99.67
75629;BME280;64213;46.452;16.994;2022-11-02T04:28:41;100621.31;;;9.47;99.48
75629;BME280;64213;46.452;16.994;2022-11-02T04:31:43;100613.41;;;9.47;99.57
75629;BME280;64213;46.452;16.994;2022-11-02T04:34:45;100615.03;;;9.50;99.75
75629;BME280;64213;46.452;16.994;2022-11-02T04:37:47;100628.03;;;9.54;99.89
75629;BME280;64213;46.452;16.994;2022-11-02T04:41:18;100629.56;;;9.59;99.72
75629;BME280;64213;46.452;16.994;2022-11-02T04:44:40;100625.84;;;9.63;99.75
75629;BME280;64213;46.452;16.994;2022-11-02T04:47:42;100623.87;;;9.66;99.72
75629;BME280;64213;46.452;16.994;2022-11-02T04:50:44;100615.81;;;9.69;99.59
75629;BME280;64213;46.452;16.994;2022-11-02T04:53:47;100612.03;;;9.58;99.75
75629;BME280;64213;46.452;16.994;2022-11-02T04:56:49;100632.06;;;9.62;99.69
75629;BME280;64213;46.452;16.994;2022-11-02T04:59:51;100641.69;;;9.63;99.71
75629;BME280;64213;46.452;16.994;2022-11-02T05:02:53;100649.59;;;9.63;99.82
75629;BME280;64213;46.452;16.994;2022-11-02T05:05:56;100643.72;;;9.58;99.82
75629;BME280;64213;46.452;16.994;2022-11-02T05:08:58;100639.19;;;9.60;99.78
75629;BME280;64213;46.452;16.994;2022-11-02T05:12:00;100646.28;;;9.59;99.76
75629;BME280;64213;46.452;16.994;2022-11-02T05:15:02;100653.66;;;9.52;99.94
75629;BME280;64213;46.452;16.994;2022-11-02T05:18:05;100664.59;;;9.45;100.00
75629;BME280;64213;46.452;16.994;2022-11-02T05:21:09;100665.59;;;9.42;100.00
75629;BME280;64213;46.452;16.994;2022-11-02T05:24:11;100675.53;;;9.37;100.00
75629;BME280;64213;46.452;16.994;2022-11-02T05:27:14;100680.87;;;9.36;100.00
75629;BME280;64213;46.452;16.994;2022-11-02T05:30:16;100682.69;;;9.35;100.00
75629;BME280;64213;46.452;16.994;2022-11-02T05:33:19;100688.88;;;9.34;100.00
75629;BME280;64213;46.452;16.994;2022-11-02T05:36:21;100701.91;;;9.37;100.00
75629;BME280;64213;46.452;16.994;2022-11-02T05:39:23;100703.88;;;9.34;100.00
75629;BME280;64213;46.452;16.994;2022-11-02T05:42:25;100706.44;;;9.35;100.00
75629;BME280;64213;46.452;16.994;2022-11-02T05:45:27;100718.72;;;9.36;100.00
75629;BME280;64213;46.452;16.994;2022-11-02T05:48:31;100711.44;;;9.41;100.00
75629;BME280;64213;46.452;16.994;2022-11-02T05:51:33;100722.00;;;9.41;100.00
75629;BME280;64213;46.452;16.994;2022-11-02T05:54:35;100720.81;;;9.47;100.00
75629;BME280;64213;46.452;16.994;2022-11-02T05:57:37;100722.53;;;9.48;100.00
75629;BME280;64213;46.452;16.994;2022-11-02T06:00:39;100724.31;;;9.47;100.00
75629;BME280;64213;46.452;16.994;2022-11-02T06:03:41;100730.38;;;9.49;100.00
75629;BME280;64213;46.452;16.994;2022-11-02T06:06:43;100737.22;;;9.53;100.00
75629;BME280;64213;46.452;16.994;2022-11-02T06:09:46;100745.78;;;9.59;100.00
75629;BME280;64213;46.452;16.994;2022-11-02T06:12:56;100746.56;;;9.61;100.00
75629;BME280;64213;46.452;16.994;2022-11-02T06:15:59;100759.78;;;9.61;100.00
75629;BME280;64213;46.452;16.994;2022-11-02T06:19:02;100752.00;;;9.58;100.00
75629;BME280;64213;46.452;16.994;2022-11-02T06:22:04;100744.94;;;9.58;100.00
75629;BME280;64213;46.452;16.994;2022-11-02T06:25:07;100754.50;;;9.61;100.00
75629;BME280;64213;46.452;16.994;2022-11-02T06:28:09;100751.78;;;9.62;100.00
75629;BME280;64213;46.452;16.994;2022-11-02T06:31:11;100754.25;;;9.65;99.99
75629;BME280;64213;46.452;16.994;2022-11-02T06:34:13;100762.87;;;9.69;99.95
75629;BME280;64213;46.452;16.994;2022-11-02T06:37:15;100756.59;;;9.71;99.86
75629;BME280;64213;46.452;16.994;2022-11-02T06:40:18;100767.72;;;9.78;99.81
75629;BME280;64213;46.452;16.994;2022-11-02T06:43:25;100768.28;;;9.85;99.61
75629;BME280;64213;46.452;16.994;2022-11-02T06:46:27;100767.97;;;9.91;99.37
75629;BME280;64213;46.452;16.994;2022-11-02T06:49:29;100769.22;;;10.01;99.20
75629;BME280;64213;46.452;16.994;2022-11-02T06:52:31;100760.69;;;10.13;98.93
75629;BME280;64213;46.452;16.994;2022-11-02T06:55:33;100760.28;;;10.21;98.61
75629;BME280;64213;46.452;16.994;2022-11-02T06:58:35;100761.78;;;10.27;98.43
75629;BME280;64213;46.452;16.994;2022-11-02T07:01:38;100756.81;;;10.38;98.05
75629;BME280;64213;46.452;16.994;2022-11-02T07:04:40;100756.28;;;10.31;97.75
75629;BME280;64213;46.452;16.994;2022-11-02T07:07:42;100755.66;;;10.43;97.63
75629;BME280;64213;46.452;16.994;2022-11-02T07:10:44;100756.78;;;10.55;97.26
75629;BME280;64213;46.452;16.994;2022-11-02T07:13:46;100756.84;;;10.71;96.90
75629;BME280;64213;46.452;16.994;2022-11-02T07:16:48;100774.66;;;10.67;96.83
75629;BME280;64213;46.452;16.994;2022-11-02T07:19:50;100773.50;;;10.73;96.54
75629;BME280;64213;46.452;16.994;2022-11-02T07:22:57;100778.47;;;10.79;96.51
75629;BME280;64213;46.452;16.994;2022-11-02T07:26:00;100782.37;;;10.88;96.38
75629;BME280;64213;46.452;16.994;2022-11-02T07:29:03;100786.00;;;10.87;96.25
75629;BME280;64213;46.452;16.994;2022-11-02T07:32:24;100779.94;;;11.01;95.76
75629;BME280;64213;46.452;16.994;2022-11-02T07:35:26;100782.97;;;11.26;95.07
75629;BME280;64213;46.452;16.994;2022-11-02T07:38:28;100786.37;;;11.28;94.74
75629;BME280;64213;46.452;16.994;2022-11-02T07:41:30;100781.44;;;11.54;93.88
75629;BME280;64213;46.452;16.994;2022-11-02T07:44:32;100786.41;;;11.60;93.52
75629;BME280;64213;46.452;16.994;2022-11-02T07:47:41;100785.72;;;11.72;92.72
75629;BME280;64213;46.452;16.994;2022-11-02T07:50:44;100771.09;;;11.81;92.44
75629;BME280;64213;46.452;16.994;2022-11-02T07:53:45;100779.22;;;11.94;92.16
75629;BME280;64213;46.452;16.994;2022-11-02T07:56:47;100767.88;;;12.06;91.82
75629;BME280;64213;46.452;16.994;2022-11-02T07:59:50;100776.25;;;12.14;91.61
75629;BME280;64213;46.452;16.994;2022-11-02T08:02:56;100774.06;;;12.21;91.53
75629;BME280;64213;46.452;16.994;2022-11-02T08:06:02;100774.84;;;12.23;91.47
75629;BME280;64213;46.452;16.994;2022-11-02T08:09:04;100769.25;;;12.27;91.19
75629;BME280;64213;46.452;16.994;2022-11-02T08:12:06;100774.12;;;12.35;91.29
75629;BME280;64213;46.452;16.994;2022-11-02T08:15:09;100770.47;;;12.52;90.81
75629;BME280;64213;46.452;16.994;2022-11-02T08:18:13;100771.91;;;12.57;90.56
75629;BME280;64213;46.452;16.994;2022-11-02T08:21:16;100777.31;;;12.70;90.13
75629;BME280;64213;46.452;16.994;2022-11-02T08:24:17;100782.13;;;12.78;89.89
75629;BME280;64213;46.452;16.994;2022-11-02T08:27:20;100786.88;;;12.87;89.35
75629;BME280;64213;46.452;16.994;2022-11-02T08:30:22;100784.41;;;12.84;89.78
75629;BME280;64213;46.452;16.994;2022-11-02T08:33:24;100787.53;;;12.91;89.67
75629;BME280;64213;46.452;16.994;2022-11-02T08:36:26;100778.63;;;12.92;89.79
75629;BME280;64213;46.452;16.994;2022-11-02T08:39:28;100787.94;;;13.28;88.93
75629;BME280;64213;46.452;16.994;2022-11-02T08:42:30;100788.09;;;13.39;88.26
75629;BME280;64213;46.452;16.994;2022-11-02T08:45:33;100785.16;;;13.43;88.09
75629;BME280;64213;46.452;16.994;2022-11-02T08:48:55;100794.38;;;13.38;88.32
75629;BME280;64213;46.452;16.994;2022-11-02T08:51:57;100785.22;;;13.56;87.87
75629;BME280;64213;46.452;16.994;2022-11-02T08:55:00;100789.13;;;13.51;88.19
75629;BME280;64213;46.452;16.994;2022-11-02T08:58:02;100775.00;;;13.36;88.55
75629;BME280;64213;46.452;16.994;2022-11-02T09:01:04;100780.78;;;13.42;88.33
75629;BME280;64213;46.452;16.994;2022-11-02T09:04:06;100783.09;;;13.61;87.80
75629;BME280;64213;46.452;16.994;2022-11-02T09:07:08;100778.34;;;13.66;87.52
75629;BME280;64213;46.452;16.994;2022-11-02T09:10:11;100773.81;;;13.81;87.21
75629;BME280;64213;46.452;16.994;2022-11-02T09:13:14;100775.50;;;13.69;87.47
75629;BME280;64213;46.452;16.994;2022-11-02T09:16:16;100773.19;;;13.78;87.46
75629;BME280;64213;46.452;16.994;2022-11-02T09:19:18;100767.84;;;13.78;87.45
75629;BME280;64213;46.452;16.994;2022-11-02T09:22:20;100767.72;;;14.06;86.55
75629;BME280;64213;46.452;16.994;2022-11-02T09:25:23;100772.87;;;14.22;86.00
75629;BME280;64213;46.452;16.994;2022-11-02T09:28:25;100765.31;;;14.16;86.04
75629;BME280;64213;46.452;16.994;2022-11-02T09:31:27;100772.22;;;14.18;86.32
75629;BME280;64213;46.452;16.994;2022-11-02T09:34:30;100771.63;;;14.28;86.34
75629;BME280;64213;46.452;16.994;2022-11-02T09:37:33;100762.19;;;14.49;85.53
75629;BME280;64213;46.452;16.994;2022-11-02T09:40:37;100752.19;;;14.65;84.73
75629;BME280;64213;46.452;16.994;2022-11-02T09:43:55;100753.44;;;14.98;84.34
75629;BME280;64213;46.452;16.994;2022-11-02T09:47:01;100754.16;;;15.50;82.20
75629;BME280;64213;46.452;16.994;2022-11-02T09:50:33;100756.28;;;16.17;80.06
75629;BME280;64213;46.452;16.994;2022-11-02T09:54:04;100753.78;;;16.95;77.67
75629;BME280;64213;46.452;16.994;2022-11-02T09:57:38;100743.59;;;17.99;74.04
75629;BME280;64213;46.452;16.994;2022-11-02T10:00:40;100744.28;;;18.85;69.79
75629;BME280;64213;46.452;16.994;2022-11-02T10:16:42;100740.91;;;22.15;59.24
75629;BME280;64213;46.452;16.994;2022-11-02T10:19:53;100732.72;;;23.03;56.80
75629;BME280;64213;46.452;16.994;2022-11-02T10:23:02;100739.34;;;23.59;54.06
75629;BME280;64213;46.452;16.994;2022-11-02T10:26:21;100744.78;;;23.83;54.36
75629;BME280;64213;46.452;16.994;2022-11-02T10:33:11;100738.28;;;24.91;50.10
75629;BME280;64213;46.452;16.994;2022-11-02T10:39:46;100737.59;;;24.97;49.92
75629;BME280;64213;46.452;16.994;2022-11-02T10:43:05;100735.47;;;25.55;47.67
75629;BME280;64213;46.452;16.994;2022-11-02T10:50:03;100725.41;;;22.61;54.25
75629;BME280;64213;46.452;16.994;2022-11-02T10:53:15;100732.19;;;22.39;55.30
75629;BME280;64213;46.452;16.994;2022-11-02T10:56:39;100730.00;;;22.42;55.16
75629;BME280;64213;46.452;16.994;2022-11-02T10:59:41;100730.69;;;21.65;57.30
75629;BME280;64213;46.452;16.994;2022-11-02T11:02:44;100726.03;;;21.11;57.81
75629;BME280;64213;46.452;16.994;2022-11-02T11:08:50;100718.09;;;20.16;60.36
75629;BME280;64213;46.452;16.994;2022-11-02T11:12:00;100728.47;;;20.01;61.27
75629;BME280;64213;46.452;16.994;2022-11-02T11:15:03;100720.97;;;19.95;61.29
75629;BME280;64213;46.452;16.994;2022-11-02T11:18:27;100723.22;;;19.80;62.06
75629;BME280;64213;46.452;16.994;2022-11-02T11:21:50;100718.03;;;19.19;64.15
75629;BME280;64213;46.452;16.994;2022-11-02T11:25:14;100725.56;;;18.64;65.11
75629;BME280;64213;46.452;16.994;2022-11-02T11:28:26;100719.31;;;18.32;66.00
75629;BME280;64213;46.452;16.994;2022-11-02T11:31:29;100720.47;;;18.40;66.22
75629;BME280;64213;46.452;16.994;2022-11-02T11:34:32;100718.84;;;18.48;65.85
75629;BME280;64213;46.452;16.994;2022-11-02T11:37:47;100720.09;;;18.23;66.41
75629;BME280;64213;46.452;16.994;2022-11-02T11:40:53;100717.72;;;18.09;66.86
75629;BME280;64213;46.452;16.994;2022-11-02T11:43:56;100709.91;;;18.17;67.08
75629;BME280;64213;46.452;16.994;2022-11-02T11:46:59;100724.81;;;18.10;66.88
75629;BME280;64213;46.452;16.994;2022-11-02T11:50:11;100715.59;;;18.03;67.37
75629;BME280;64213;46.452;16.994;2022-11-02T11:53:30;100713.62;;;17.84;67.98
75629;BME280;64213;46.452;16.994;2022-11-02T11:56:32;100706.31;;;17.75;68.46
75629;BME280;64213;46.452;16.994;2022-11-02T12:03:03;100697.75;;;17.60;68.65
75629;BME280;64213;46.452;16.994;2022-11-02T12:06:28;100707.44;;;17.61;69.26
75629;BME280;64213;46.452;16.994;2022-11-02T12:20:06;100711.41;;;17.46;69.74
75629;BME280;64213;46.452;16.994;2022-11-02T12:30:20;100703.25;;;17.47;70.06
75629;BME280;64213;46.452;16.994;2022-11-02T12:43:49;100682.28;;;17.31;70.47
75629;BME280;64213;46.452;16.994;2022-11-02T12:47:28;100680.34;;;17.33;70.59
75629;BME280;64213;46.452;16.994;2022-11-02T12:50:50;100676.66;;;17.34;71.37
75629;BME280;64213;46.452;16.994;2022-11-02T12:53:58;100675.94;;;17.32;71.25
75629;BME280;64213;46.452;16.994;2022-11-02T12:57:02;100684.94;;;17.31;71.59
75629;BME280;64213;46.452;16.994;2022-11-02T13:00:14;100683.50;;;17.27;72.57
75629;BME280;64213;46.452;16.994;2022-11-02T13:07:04;100686.69;;;17.21;73.51
75629;BME280;64213;46.452;16.994;2022-11-02T13:10:23;100667.72;;;17.13;73.52
75629;BME280;64213;46.452;16.994;2022-11-02T13:13:37;100673.31;;;17.10;74.18
75629;BME280;64213;46.452;16.994;2022-11-02T13:17:05;100677.22;;;17.06;74.65
75629;BME280;64213;46.452;16.994;2022-11-02T13:20:15;100670.69;;;16.99;74.75
75629;BME280;64213;46.452;16.994;2022-11-02T13:26:37;100662.66;;;16.87;75.85
75629;BME280;64213;46.452;16.994;2022-11-02T13:29:48;100669.84;;;16.87;75.74
75629;BME280;64213;46.452;16.994;2022-11-02T13:32:57;100667.56;;;16.82;75.88
75629;BME280;64213;46.452;16.994;2022-11-02T13:36:00;100665.72;;;16.83;75.90
75629;BME280;64213;46.452;16.994;2022-11-02T13:39:20;100666.06;;;16.78;76.47
75629;BME280;64213;46.452;16.994;2022-11-02T13:42:46;100667.28;;;16.74;76.56
75629;BME280;64213;46.452;16.994;2022-11-02T13:46:03;100660.25;;;16.73;77.20
75629;BME280;64213;46.452;16.994;2022-11-02T13:52:54;100663.87;;;16.72;77.26
75629;BME280;64213;46.452;16.994;2022-11-02T13:56:06;100659.50;;;16.71;77.72
75629;BME280;64213;46.452;16.994;2022-11-02T13:59:19;100665.09;;;16.68;78.30
75629;BME280;64213;46.452;16.994;2022-11-02T14:02:22;100659.75;;;16.68;78.18
75629;BME280;64213;46.452;16.994;2022-11-02T14:05:42;100650.78;;;16.69;77.69
75629;BME280;64213;46.452;16.994;2022-11-02T14:08:47;100653.56;;;16.67;77.83
75629;BME280;64213;46.452;16.994;2022-11-02T14:11:50;100647.37;;;16.67;78.17
75629;BME280;64213;46.452;16.994;2022-11-02T14:18:17;100642.75;;;16.80;76.26
75629;BME280;64213;46.452;16.994;2022-11-02T14:21:45;100639.69;;;16.96;75.37
75629;BME280;64213;46.452;16.994;2022-11-02T14:25:13;100634.94;;;17.11;74.89
75629;BME280;64213;46.452;16.994;2022-11-02T14:31:38;100632.31;;;17.32;75.58
75629;BME280;64213;46.452;16.994;2022-11-02T14:45:19;100627.53;;;17.35;72.23
75629;BME280;64213;46.452;16.994;2022-11-02T14:48:28;100634.97;;;17.32;72.76
75629;BME280;64213;46.452;16.994;2022-11-02T14:51:36;100646.91;;;17.28;72.96
75629;BME280;64213;46.452;16.994;2022-11-02T14:54:48;100648.75;;;17.27;72.68
75629;BME280;64213;46.452;16.994;2022-11-02T15:00:57;100649.00;;;17.13;74.72
75629;BME280;64213;46.452;16.994;2022-11-02T15:04:05;100647.37;;;17.01;75.82
75629;BME280;64213;46.452;16.994;2022-11-02T15:07:23;100651.03;;;16.88;76.30
75629;BME280;64213;46.452;16.994;2022-11-02T15:13:45;100650.28;;;16.64;77.75
75629;BME280;64213;46.452;16.994;2022-11-02T15:16:49;100643.25;;;16.51;78.34
75629;BME280;64213;46.452;16.994;2022-11-02T15:29:32;100654.25;;;16.13;80.09
75629;BME280;64213;46.452;16.994;2022-11-02T15:32:41;100657.63;;;16.04;80.34
75629;BME280;64213;46.452;16.994;2022-11-02T15:35:46;100660.06;;;15.96;80.93
75629;BME280;64213;46.452;16.994;2022-11-02T15:38:50;100656.12;;;15.89;81.09
75629;BME280;64213;46.452;16.994;2022-11-02T15:42:24;100667.31;;;15.83;81.45
75629;BME280;64213;46.452;16.994;2022-11-02T15:45:54;100663.50;;;15.74;81.91
75629;BME280;64213;46.452;16.994;2022-11-02T15:56:24;100675.91;;;15.62;82.42
75629;BME280;64213;46.452;16.994;2022-11-02T16:02:47;100682.38;;;15.47;83.05
75629;BME280;64213;46.452;16.994;2022-11-02T16:05:50;100689.75;;;15.43;83.62
75629;BME280;64213;46.452;16.994;2022-11-02T16:08:56;100689.03;;;15.41;84.11
75629;BME280;64213;46.452;16.994;2022-11-02T16:12:09;100687.44;;;15.39;84.15
75629;BME280;64213;46.452;16.994;2022-11-02T16:15:18;100686.06;;;15.33;84.68
75629;BME280;64213;46.452;16.994;2022-11-02T16:18:35;100697.94;;;15.29;84.88
75629;BME280;64213;46.452;16.994;2022-11-02T16:21:38;100693.31;;;15.31;85.26
75629;BME280;64213;46.452;16.994;2022-11-02T16:24:42;100704.72;;;15.33;85.58
75629;BME280;64213;46.452;16.994;2022-11-02T16:27:47;100710.81;;;15.35;85.25
75629;BME280;64213;46.452;16.994;2022-11-02T16:34:35;100708.69;;;15.27;85.48
75629;BME280;64213;46.452;16.994;2022-11-02T16:37:38;100712.56;;;15.23;85.76
75629;BME280;64213;46.452;16.994;2022-11-02T16:40:43;100713.62;;;15.21;86.04
75629;BME280;64213;46.452;16.994;2022-11-02T16:43:48;100722.59;;;15.20;86.13
75629;BME280;64213;46.452;16.994;2022-11-02T16:47:14;100718.19;;;15.19;85.95
75629;BME280;64213;46.452;16.994;2022-11-02T16:50:22;100718.31;;;15.17;85.96
75629;BME280;64213;46.452;16.994;2022-11-02T16:53:28;100728.00;;;15.18;85.97
75629;BME280;64213;46.452;16.994;2022-11-02T16:56:31;100723.53;;;15.19;86.08
75629;BME280;64213;46.452;16.994;2022-11-02T16:59:35;100725.34;;;15.18;85.74
75629;BME280;64213;46.452;16.994;2022-11-02T17:02:42;100721.63;;;15.21;85.39
75629;BME280;64213;46.452;16.994;2022-11-02T17:05:47;100710.41;;;15.28;84.46
75629;BME280;64213;46.452;16.994;2022-11-02T17:08:53;100718.50;;;15.27;84.83
75629;BME280;64213;46.452;16.994;2022-11-02T17:11:58;100720.44;;;15.25;85.22
75629;BME280;64213;46.452;16.994;2022-11-02T17:15:13;100722.38;;;15.23;85.50
75629;BME280;64213;46.452;16.994;2022-11-02T17:21:27;100721.75;;;15.19;85.48
75629;BME280;64213;46.452;16.994;2022-11-02T17:24:32;100726.19;;;15.19;85.79
75629;BME280;64213;46.452;16.994;2022-11-02T17:27:37;100727.16;;;15.18;85.97
75629;BME280;64213;46.452;16.994;2022-11-02T17:30:45;100734.44;;;15.16;86.27
75629;BME280;64213;46.452;16.994;2022-11-02T17:33:51;100740.72;;;15.15;86.33
75629;BME280;64213;46.452;16.994;2022-11-02T17:36:55;100728.91;;;15.06;86.60
75629;BME280;64213;46.452;16.994;2022-11-02T17:40:00;100738.72;;;15.05;86.34
75629;BME280;64213;46.452;16.994;2022-11-02T17:43:05;100740.44;;;15.06;86.21
75629;BME280;64213;46.452;16.994;2022-11-02T17:46:09;100744.34;;;15.14;85.93
75629;BME280;64213;46.452;16.994;2022-11-02T17:49:12;100744.34;;;15.14;86.10
75629;BME280;64213;46.452;16.994;2022-11-02T17:52:16;100739.13;;;15.12;86.14
75629;BME280;64213;46.452;16.994;2022-11-02T17:55:25;100745.31;;;15.13;86.33
75629;BME280;64213;46.452;16.994;2022-11-02T17:58:29;100744.56;;;15.10;86.19
75629;BME280;64213;46.452;16.994;2022-11-02T18:01:32;100747.09;;;15.12;86.55
75629;BME280;64213;46.452;16.994;2022-11-02T18:04:35;100752.56;;;15.10;86.83
75629;BME280;64213;46.452;16.994;2022-11-02T18:07:39;100748.41;;;15.06;87.19
75629;BME280;64213;46.452;16.994;2022-11-02T18:10:45;100755.66;;;15.04;87.25
75629;BME280;64213;46.452;16.994;2022-11-02T18:13:49;100752.37;;;15.01;87.59
75629;BME280;64213;46.452;16.994;2022-11-02T18:16:55;100750.69;;;15.00;87.41
75629;BME280;64213;46.452;16.994;2022-11-02T18:19:59;100746.41;;;14.97;87.37
75629;BME280;64213;46.452;16.994;2022-11-02T18:23:02;100737.66;;;14.95;87.39
75629;BME280;64213;46.452;16.994;2022-11-02T18:26:08;100737.88;;;14.92;87.64
75629;BME280;64213;46.452;16.994;2022-11-02T18:29:12;100738.22;;;14.87;88.01
75629;BME280;64213;46.452;16.994;2022-11-02T18:32:28;100729.59;;;14.84;88.22